Aviation Digital Data Service (ADDS)

Output produced by METARs form (1256 UTC 21 February 2018)
found at http://www.aviationweather.gov/adds/metars/
 
TAF AMD KADW 201400Z 2014/2115 20012KT 4800 BR BKN008 WS020/23040KT QNH3030INS 
     BECMG 2014/2015 20012KT 4800 BR SCT008 WS020/23040KT QNH3030INS 
     BECMG 2015/2017 21012G18KT 9999 NSW BKN008 QNH3035INS 
     BECMG 2023/2024 20009KT 9999 BKN010 WS020/23040KT QNH3039INS 
     BECMG 2105/2106 21006KT 4800 BR OVC005 WS020/23040KT QNH3038INS TX21/2016Z TN13/2014Z
       
TAF AMD KAFF 2013/2118 33009KT 9999 SCT010 BKN050 620509 520609 QNH2968INS 
     BECMG 2015/2016 15009KT 9999 OVC010 620109 520609 QNH2978INS 
     BECMG 2021/2022 16012G18KT 4800 -SN BR OVC005 620059 520409 QNH2985INS 
     TEMPO 2100/2105 0800 SN FZFG OVC001 620019 
     BECMG 2107/2108 15009KT 0800 FZFG OVC001 620019 QNH3010INS TX00/2021Z TNM16/2015Z
       
KATL 201332Z 2014/2118 13006KT 1SM BR OVC003 
     TEMPO 2014/2015 1/2SM FG OVC002 
     FM201600 14007KT 6SM BR BKN006 
     FM201800 15007KT P6SM BKN012 
     FM202000 14008KT P6SM SCT015 BKN035 
     FM210300 14006KT P6SM BKN015 
     FM211000 15007KT 4SM BR BKN006 
     FM211600 17006KT P6SM BKN010
       
KAUS 201417Z 2014/2118 15012G22KT P6SM VCSH SCT020 BKN060 BKN200 
     FM201800 17014G24KT 5SM -SHRA OVC012 
     FM202300 18013KT P6SM OVC035 
     FM210800 16005KT 4SM -TSRA BKN025CB 
     FM211000 01010G20KT 5SM SHRA BR OVC015